You are not logged in, Click here to log in
薩比哈·格克琴國際機場 / LTFJ 土耳其最大城市伊斯坦堡的第二座國際機場
ICAO: LTFJ Country: 土耳其最大城市伊斯坦堡的第二座國際機場
Latitude: 40.9011 Longitude: 29.32
Total Arrivals: 1 Total Departures: 0
Latest Arrival: PC746 (LGAV-LTFJ)Arthur. Kung Latest Departure: (-).
Scenery:
METAR : LTFJ 190450Z 18002KT 3800 BR FEW010 BKN160 06/05 Q1019 NOSIG

薩比哈·格克琴國際機場

You are accessing this site from IP address 35.175.113.29. Virtual Airline. CMS by phpVMS.Website designed by Zumeweb and edited by Theo Bearman.
There is 0 User(s) Online: | and 2 Guest(s) Online.
All information on this site is for fight simulation purposes only. This site is for flight logging for pilots of Virtual Airline&模擬飛行論壇 FlySim only.